Terminal Aerodrome Forecast
Issued by NWS Wilmington, OH

Home | Current Version | Previous Version | Text Only | Print | Product List | Glossary On
Versions: 1 2 3 4 5 6 7 8 9 10 11 12 13 14 15 16 17 18 19 20
000
FTUS41 KILN 061155 AAA
TAFCMH
TAF AMD
KCMH 061155Z 0612/0712 10012KT P6SM -RA OVC035
      TEMPO 0612/0614 OVC025
     FM061400 10011KT 3SM -RA OVC025
     FM061800 11006KT 1SM -RA BR OVC005
     FM062200 02004KT P6SM VCSH OVC005
     FM070000 29012G20KT P6SM -DZ OVC007=

USA.gov is the U.S. government's official web portal to all federal, state and local government web resources and services.